createdAt,value
2018-11-29T00:00:01.585Z,8.30
2018-11-29T00:02:28.783Z,8.10
2018-11-29T00:04:55.943Z,8.00
2018-11-29T00:07:23.125Z,7.27
2018-11-29T00:09:50.303Z,7.00
2018-11-29T00:12:17.500Z,8.13
2018-11-29T00:14:44.684Z,8.10
2018-11-29T00:17:11.877Z,7.80
2018-11-29T00:19:39.044Z,7.90
2018-11-29T00:22:06.263Z,8.10
2018-11-29T00:24:33.424Z,7.90
2018-11-29T00:27:00.604Z,7.57
2018-11-29T00:29:27.759Z,7.67
2018-11-29T00:31:54.941Z,7.60
2018-11-29T00:34:22.102Z,7.70
2018-11-29T00:36:50.125Z,7.63
2018-11-29T00:39:17.329Z,7.40
2018-11-29T00:41:44.539Z,7.83
2018-11-29T00:44:11.703Z,8.30
2018-11-29T00:46:38.877Z,8.17
2018-11-29T00:49:06.049Z,8.30
2018-11-29T00:51:33.213Z,7.83
2018-11-29T00:54:00.366Z,7.70
2018-11-29T00:56:27.542Z,8.23
2018-11-29T00:58:54.697Z,8.00
2018-11-29T01:01:21.877Z,8.73
2018-11-29T01:03:49.028Z,8.00
2018-11-29T01:06:16.236Z,8.13
2018-11-29T01:08:43.396Z,8.53
2018-11-29T01:11:10.584Z,8.80
2018-11-29T01:13:37.752Z,8.30
2018-11-29T01:16:04.997Z,9.20
2018-11-29T01:18:32.167Z,8.30
2018-11-29T01:20:59.348Z,8.13
2018-11-29T01:23:26.546Z,8.60
2018-11-29T01:25:53.708Z,8.43
2018-11-29T01:28:20.876Z,9.27
2018-11-29T01:30:48.061Z,9.17
2018-11-29T01:33:15.228Z,9.50
2018-11-29T01:35:42.382Z,9.50
2018-11-29T01:38:09.555Z,9.03
2018-11-29T01:40:36.717Z,9.27
2018-11-29T01:43:03.876Z,9.40
2018-11-29T01:45:31.064Z,9.40
2018-11-29T01:47:58.236Z,8.83
2018-11-29T01:50:25.426Z,10.10
2018-11-29T01:52:52.647Z,9.83
2018-11-29T01:55:19.828Z,9.10
2018-11-29T01:57:46.993Z,9.10
2018-11-29T02:00:14.632Z,9.17
2018-11-29T02:02:41.854Z,9.80
2018-11-29T02:05:09.561Z,9.87
2018-11-29T02:07:36.793Z,10.40
2018-11-29T02:10:09.932Z,10.20
2018-11-29T02:12:37.109Z,10.57
2018-11-29T02:15:04.498Z,9.63
2018-11-29T02:17:31.668Z,10.80
2018-11-29T02:19:58.838Z,10.80
2018-11-29T02:22:26.005Z,10.70
2018-11-29T02:24:53.189Z,9.87
2018-11-29T02:27:20.352Z,10.60
2018-11-29T02:29:47.552Z,10.53
2018-11-29T02:32:14.723Z,10.67
2018-11-29T02:34:41.909Z,11.57
2018-11-29T02:37:09.074Z,11.70
2018-11-29T02:39:36.243Z,10.67
2018-11-29T02:42:03.428Z,10.70
2018-11-29T02:44:30.632Z,11.20
2018-11-29T02:46:57.791Z,11.57
2018-11-29T02:49:24.963Z,12.00
2018-11-29T02:51:52.138Z,11.37
2018-11-29T02:54:19.364Z,10.67
2018-11-29T02:56:46.544Z,11.20
2018-11-29T02:59:13.756Z,11.43
2018-11-29T03:01:40.945Z,10.57
2018-11-29T03:04:08.127Z,11.93
2018-11-29T03:06:35.309Z,10.70
2018-11-29T03:09:02.528Z,11.20
2018-11-29T03:11:29.689Z,10.90
2018-11-29T03:13:56.859Z,11.23
2018-11-29T03:16:24.044Z,11.17
2018-11-29T03:18:51.228Z,11.30
2018-11-29T03:21:18.412Z,11.33
2018-11-29T03:23:45.574Z,11.37
2018-11-29T03:26:12.788Z,11.00
2018-11-29T03:28:39.984Z,11.80
2018-11-29T03:31:07.161Z,11.30
2018-11-29T03:33:34.333Z,11.30
2018-11-29T03:36:01.528Z,11.67
2018-11-29T03:38:28.701Z,11.30
2018-11-29T03:40:55.876Z,11.60
2018-11-29T03:43:23.039Z,11.60
2018-11-29T03:45:50.252Z,11.80
2018-11-29T03:48:17.428Z,12.43
2018-11-29T03:50:44.596Z,11.67
2018-11-29T03:53:11.768Z,11.60
2018-11-29T03:55:38.944Z,12.00
2018-11-29T03:58:06.123Z,12.60
2018-11-29T04:00:33.301Z,12.37
2018-11-29T04:03:00.481Z,12.70
2018-11-29T04:05:27.665Z,12.00
2018-11-29T04:07:54.844Z,12.10
2018-11-29T04:10:22.015Z,12.60
2018-11-29T04:12:49.186Z,12.67
2018-11-29T04:15:16.359Z,12.30
2018-11-29T04:17:43.649Z,12.83
2018-11-29T04:20:12.274Z,13.70
2018-11-29T04:22:39.444Z,13.03
2018-11-29T04:25:07.647Z,12.97
2018-11-29T04:27:34.834Z,11.67
2018-11-29T04:30:02.023Z,13.13
2018-11-29T04:32:29.198Z,13.30
2018-11-29T04:34:56.360Z,14.27
2018-11-29T04:37:23.543Z,13.10
2018-11-29T04:39:50.717Z,13.63
2018-11-29T04:42:17.880Z,13.57
2018-11-29T04:44:45.057Z,12.73
2018-11-29T04:47:12.244Z,14.00
2018-11-29T04:49:39.420Z,13.93
2018-11-29T04:52:06.604Z,13.57
2018-11-29T04:54:33.765Z,14.40
2018-11-29T04:57:00.960Z,13.00
2018-11-29T04:59:28.138Z,13.40
2018-11-29T05:01:55.304Z,14.30
2018-11-29T05:04:22.536Z,12.93
2018-11-29T05:06:49.719Z,14.13
2018-11-29T05:09:16.904Z,13.03
2018-11-29T05:11:44.091Z,13.80
2018-11-29T05:14:11.256Z,13.30
2018-11-29T05:16:38.436Z,13.33
2018-11-29T05:19:05.647Z,13.47
2018-11-29T05:21:32.816Z,13.87
2018-11-29T05:23:59.996Z,13.73
2018-11-29T05:26:27.200Z,12.53
2018-11-29T05:28:54.385Z,13.77
2018-11-29T05:31:21.552Z,13.57
2018-11-29T05:33:48.759Z,13.37
2018-11-29T05:36:15.927Z,13.60
2018-11-29T05:38:43.088Z,13.20
2018-11-29T05:41:10.265Z,13.37
2018-11-29T05:43:37.439Z,13.67
2018-11-29T05:46:04.692Z,14.17
2018-11-29T05:48:31.883Z,14.20
2018-11-29T05:50:59.066Z,13.03
2018-11-29T05:53:26.252Z,13.47
2018-11-29T05:55:53.417Z,12.70
2018-11-29T05:58:20.592Z,12.73
2018-11-29T06:00:47.812Z,12.80
2018-11-29T06:03:15.151Z,12.03
2018-11-29T06:05:42.325Z,12.50
2018-11-29T06:08:09.494Z,12.63
2018-11-29T06:10:36.708Z,12.47
2018-11-29T06:13:03.923Z,12.57
2018-11-29T06:15:31.093Z,12.73
2018-11-29T06:17:58.268Z,12.90
2018-11-29T06:20:25.452Z,13.10
2018-11-29T06:22:52.632Z,12.30
2018-11-29T06:25:19.838Z,12.30
2018-11-29T06:27:47.052Z,13.40
2018-11-29T06:30:14.836Z,12.90
2018-11-29T06:32:42.023Z,13.77
2018-11-29T06:35:09.252Z,12.77
2018-11-29T06:37:36.436Z,13.57
2018-11-29T06:40:04.004Z,12.57
2018-11-29T06:42:31.197Z,12.13
2018-11-29T06:44:58.426Z,12.90
2018-11-29T06:47:25.689Z,13.10
2018-11-29T06:49:52.872Z,12.63
2018-11-29T06:52:20.036Z,13.17
2018-11-29T06:54:47.217Z,13.37
2018-11-29T06:57:14.388Z,12.33
2018-11-29T06:59:41.563Z,13.80
2018-11-29T07:02:08.746Z,13.27
2018-11-29T07:04:35.940Z,12.50
2018-11-29T07:07:03.125Z,13.00
2018-11-29T07:09:30.325Z,12.90
2018-11-29T07:12:05.613Z,13.20
2018-11-29T07:14:32.803Z,12.17
2018-11-29T07:16:59.999Z,13.03
2018-11-29T07:19:28.162Z,12.80
2018-11-29T07:21:54.780Z,12.10
2018-11-29T07:24:22.500Z,12.70
2018-11-29T07:26:49.669Z,12.73
2018-11-29T07:29:17.195Z,12.20
2018-11-29T07:31:44.035Z,13.57
2018-11-29T07:34:11.245Z,12.63
2018-11-29T07:36:38.420Z,14.10
2018-11-29T07:39:12.288Z,13.27
2018-11-29T07:41:39.535Z,13.37
2018-11-29T07:44:08.309Z,12.73
2018-11-29T07:46:35.492Z,12.97
2018-11-29T07:49:02.664Z,13.00
2018-11-29T07:51:29.856Z,13.13
2018-11-29T07:53:57.021Z,14.07
2018-11-29T07:56:24.218Z,12.37
2018-11-29T07:58:52.445Z,13.10
2018-11-29T08:01:18.554Z,13.50
2018-11-29T08:03:45.745Z,12.17
2018-11-29T08:06:12.916Z,13.43
2018-11-29T08:08:40.172Z,13.77
2018-11-29T08:11:07.275Z,13.70
2018-11-29T08:13:34.440Z,12.70
2018-11-29T08:16:01.624Z,13.90
2018-11-29T08:18:28.787Z,12.77
2018-11-29T08:20:55.982Z,14.03
2018-11-29T08:23:23.156Z,14.00
2018-11-29T08:25:50.361Z,12.87
2018-11-29T08:28:17.529Z,14.33
2018-11-29T08:30:44.721Z,13.93
2018-11-29T08:33:11.968Z,13.03
2018-11-29T08:35:39.147Z,12.80
2018-11-29T08:38:06.340Z,13.30
2018-11-29T08:40:33.596Z,14.67
2018-11-29T08:43:00.767Z,12.40
2018-11-29T08:45:27.953Z,12.87
2018-11-29T08:47:55.131Z,13.90
2018-11-29T08:50:22.303Z,12.57
2018-11-29T08:52:49.477Z,13.83
2018-11-29T08:55:19.043Z,12.67
2018-11-29T08:57:46.552Z,13.60
2018-11-29T09:00:15.140Z,12.53
2018-11-29T09:02:42.336Z,13.90
2018-11-29T09:05:09.972Z,13.97
2018-11-29T09:07:37.147Z,13.23
2018-11-29T09:10:05.053Z,13.57
2018-11-29T09:12:32.223Z,11.80
2018-11-29T09:14:59.391Z,12.73
2018-11-29T09:17:26.552Z,13.20
2018-11-29T09:19:53.716Z,12.60
2018-11-29T09:22:20.883Z,13.77
2018-11-29T09:24:48.053Z,13.13
2018-11-29T09:27:15.233Z,13.47
2018-11-29T09:29:42.396Z,13.53
2018-11-29T09:32:09.576Z,13.13
2018-11-29T09:34:36.748Z,13.17
2018-11-29T09:37:03.935Z,15.80
2018-11-29T09:39:31.112Z,14.73
2018-11-29T09:41:58.296Z,14.23
2018-11-29T09:44:25.474Z,13.90
2018-11-29T09:46:52.633Z,13.73
2018-11-29T09:49:19.810Z,15.77
2018-11-29T09:51:46.964Z,14.70
2018-11-29T09:54:14.140Z,14.70
2018-11-29T09:56:41.316Z,14.43
2018-11-29T09:59:08.503Z,14.27
2018-11-29T10:01:35.719Z,14.60
2018-11-29T10:04:02.912Z,14.00
2018-11-29T10:06:30.075Z,14.90
2018-11-29T10:08:57.292Z,13.80
2018-11-29T10:11:24.462Z,14.30
2018-11-29T10:13:51.636Z,13.60
2018-11-29T10:16:18.817Z,14.60
2018-11-29T10:18:45.991Z,15.17
2018-11-29T10:21:13.152Z,14.53
2018-11-29T10:23:40.340Z,15.03
2018-11-29T10:26:07.500Z,14.63
2018-11-29T10:28:34.752Z,12.27
2018-11-29T10:31:02.485Z,14.30
2018-11-29T10:33:29.665Z,14.47
2018-11-29T10:35:59.362Z,15.20
2018-11-29T10:38:24.049Z,14.30
2018-11-29T10:40:51.234Z,14.23
2018-11-29T10:43:18.416Z,14.93
2018-11-29T10:45:45.601Z,14.20
2018-11-29T10:48:13.516Z,14.93
2018-11-29T10:50:40.699Z,14.87
2018-11-29T10:53:08.434Z,14.40
2018-11-29T10:55:35.641Z,14.70
2018-11-29T10:58:02.828Z,14.00
2018-11-29T11:00:34.461Z,13.70
2018-11-29T11:03:07.457Z,13.87
2018-11-29T11:05:34.647Z,14.27
2018-11-29T11:08:07.900Z,15.60
2018-11-29T11:10:29.060Z,14.97
2018-11-29T11:12:56.225Z,15.10
2018-11-29T11:15:23.401Z,14.27
2018-11-29T11:17:50.574Z,14.73
2018-11-29T11:20:17.748Z,15.37
2018-11-29T11:22:44.932Z,13.20
2018-11-29T11:25:12.248Z,15.50
2018-11-29T11:27:39.429Z,16.30
2018-11-29T11:30:10.180Z,15.47
2018-11-29T11:32:37.376Z,16.00
2018-11-29T11:35:05.165Z,14.67
2018-11-29T11:37:32.325Z,16.93
2018-11-29T11:39:59.527Z,16.20
2018-11-29T11:42:26.692Z,15.77
2018-11-29T11:44:53.861Z,15.10
2018-11-29T11:47:21.032Z,15.90
2018-11-29T11:49:48.196Z,14.57
2018-11-29T11:52:15.352Z,15.23
2018-11-29T11:54:42.536Z,15.57
2018-11-29T11:57:09.704Z,16.00
2018-11-29T11:59:36.885Z,14.67
2018-11-29T12:02:04.085Z,15.17
2018-11-29T12:04:31.274Z,16.10
2018-11-29T12:06:58.440Z,14.90
2018-11-29T12:09:25.603Z,14.80
2018-11-29T12:11:52.836Z,15.27
2018-11-29T12:14:19.951Z,16.50
2018-11-29T12:16:47.124Z,14.93
2018-11-29T12:19:14.300Z,16.00
2018-11-29T12:21:41.520Z,15.30
2018-11-29T12:24:08.696Z,15.77
2018-11-29T12:26:35.920Z,14.93
2018-11-29T12:29:03.096Z,15.50
2018-11-29T12:31:30.276Z,15.20
2018-11-29T12:33:57.445Z,16.17
2018-11-29T12:36:24.633Z,16.87
2018-11-29T12:38:51.835Z,13.03
2018-11-29T12:41:19.040Z,16.10
2018-11-29T12:43:46.200Z,14.80
2018-11-29T12:46:13.367Z,14.30
2018-11-29T12:48:40.524Z,14.97
2018-11-29T12:51:07.724Z,14.83
2018-11-29T12:53:34.908Z,15.43
2018-11-29T12:56:02.097Z,14.80
2018-11-29T12:58:29.261Z,14.90
2018-11-29T13:00:56.429Z,15.13
2018-11-29T13:03:23.597Z,15.40
2018-11-29T13:05:50.780Z,14.23
2018-11-29T13:08:17.933Z,14.80
2018-11-29T13:10:45.112Z,14.60
2018-11-29T13:13:12.284Z,14.83
2018-11-29T13:15:39.450Z,15.60
2018-11-29T13:18:07.161Z,15.30
2018-11-29T13:20:34.325Z,14.23
2018-11-29T13:23:01.603Z,14.73
2018-11-29T13:25:28.825Z,14.73
2018-11-29T13:27:55.983Z,14.97
2018-11-29T13:30:23.221Z,13.83
2018-11-29T13:32:51.903Z,14.70
2018-11-29T13:35:20.111Z,14.07
2018-11-29T13:37:49.913Z,14.73
2018-11-29T13:42:44.338Z,14.53
2018-11-29T13:45:11.548Z,14.30
2018-11-29T13:47:38.850Z,14.97
2018-11-29T13:50:07.725Z,14.33
2018-11-29T13:52:34.892Z,14.13
2018-11-29T13:55:02.057Z,14.57
2018-11-29T13:57:29.223Z,15.90
2018-11-29T13:59:56.398Z,14.27
2018-11-29T14:02:23.581Z,13.90
2018-11-29T14:04:50.769Z,13.93
2018-11-29T14:07:17.943Z,13.80
2018-11-29T14:09:45.083Z,14.07
2018-11-29T14:12:12.736Z,13.33
2018-11-29T14:14:39.901Z,13.37
2018-11-29T14:17:07.081Z,12.27
2018-11-29T14:19:34.244Z,12.53
2018-11-29T14:22:01.401Z,12.63
2018-11-29T14:24:28.557Z,12.20
2018-11-29T14:26:55.873Z,12.90
2018-11-29T14:29:23.060Z,11.57
2018-11-29T14:31:50.256Z,11.93
2018-11-29T14:34:17.422Z,11.40
2018-11-29T14:36:44.593Z,12.07
2018-11-29T14:39:11.759Z,12.27
2018-11-29T14:41:38.952Z,11.50
2018-11-29T14:44:06.112Z,12.00
2018-11-29T14:46:33.298Z,11.47
2018-11-29T14:49:00.477Z,11.97
2018-11-29T14:51:27.657Z,11.90
2018-11-29T14:53:54.824Z,11.40
2018-11-29T14:56:21.992Z,11.43
2018-11-29T14:58:49.149Z,11.80
2018-11-29T15:01:16.324Z,11.70
2018-11-29T15:03:43.541Z,11.67
2018-11-29T15:06:10.703Z,11.27
2018-11-29T15:08:37.900Z,11.60
2018-11-29T15:11:05.126Z,11.80
2018-11-29T15:13:32.283Z,11.93
2018-11-29T15:15:59.452Z,10.50
2018-11-29T15:18:26.621Z,11.17
2018-11-29T15:20:53.804Z,11.60
2018-11-29T15:23:20.959Z,10.10
2018-11-29T15:25:48.128Z,10.73
2018-11-29T15:28:15.307Z,10.20
2018-11-29T15:30:42.480Z,10.90
2018-11-29T15:33:09.656Z,10.67
2018-11-29T15:35:36.823Z,10.00
2018-11-29T15:38:04.036Z,10.80
2018-11-29T15:40:31.309Z,10.70
2018-11-29T15:42:58.481Z,10.50
2018-11-29T15:45:26.129Z,10.20
2018-11-29T15:47:53.284Z,9.60
2018-11-29T15:50:20.467Z,9.60
2018-11-29T15:52:47.642Z,8.90
2018-11-29T15:55:15.225Z,9.10
2018-11-29T15:57:42.452Z,9.47
2018-11-29T16:00:10.611Z,8.90
2018-11-29T16:02:37.808Z,8.53
2018-11-29T16:05:05.373Z,8.40
2018-11-29T16:07:32.540Z,8.80
2018-11-29T16:09:59.768Z,8.00
2018-11-29T16:12:26.928Z,8.20
2018-11-29T16:14:54.071Z,7.40
2018-11-29T16:17:21.255Z,7.93
2018-11-29T16:19:48.429Z,8.20
2018-11-29T16:22:15.610Z,8.30
2018-11-29T16:24:42.775Z,8.43
2018-11-29T16:27:09.939Z,7.77
2018-11-29T16:29:37.104Z,7.80
2018-11-29T16:32:04.960Z,8.30
2018-11-29T16:34:32.125Z,8.20
2018-11-29T16:36:59.289Z,7.50
2018-11-29T16:39:26.465Z,8.03
2018-11-29T16:41:53.648Z,7.87
2018-11-29T16:44:20.819Z,8.93
2018-11-29T16:46:48.000Z,8.17
2018-11-29T16:49:15.155Z,8.10
2018-11-29T16:51:42.331Z,10.17
2018-11-29T16:54:09.495Z,9.00
2018-11-29T16:56:36.659Z,8.13
2018-11-29T16:59:03.840Z,8.40
2018-11-29T17:01:31.029Z,8.97
2018-11-29T17:03:58.175Z,8.80
2018-11-29T17:06:25.351Z,8.83
2018-11-29T17:08:52.532Z,8.80
2018-11-29T17:11:19.719Z,9.23
2018-11-29T17:13:46.880Z,8.97
2018-11-29T17:16:14.071Z,9.50
2018-11-29T17:18:41.244Z,8.60
2018-11-29T17:21:08.396Z,9.93
2018-11-29T17:23:35.582Z,9.77
2018-11-29T17:26:02.749Z,9.50
2018-11-29T17:28:29.931Z,9.20
2018-11-29T17:30:57.101Z,8.97
2018-11-29T17:33:24.281Z,10.00
2018-11-29T17:35:51.440Z,9.07
2018-11-29T17:38:18.611Z,10.40
2018-11-29T17:40:45.781Z,9.40
2018-11-29T17:43:12.989Z,9.73
2018-11-29T17:45:40.241Z,10.10
2018-11-29T17:48:08.028Z,9.67
2018-11-29T17:50:35.917Z,8.87
2018-11-29T17:53:03.175Z,10.17
2018-11-29T17:55:30.345Z,8.97
2018-11-29T17:57:57.549Z,9.13
2018-11-29T18:00:25.404Z,10.13
2018-11-29T18:02:52.572Z,10.00
2018-11-29T18:05:19.731Z,10.27
2018-11-29T18:07:46.900Z,9.80
2018-11-29T18:10:14.835Z,10.17
2018-11-29T18:12:42.045Z,9.53
2018-11-29T18:15:11.408Z,10.60
2018-11-29T18:17:38.560Z,9.40
2018-11-29T18:20:06.462Z,10.40
2018-11-29T18:22:33.611Z,10.30
2018-11-29T18:25:00.783Z,10.23
2018-11-29T18:27:28.005Z,10.73
2018-11-29T18:29:55.480Z,10.47
2018-11-29T18:32:22.641Z,9.97
2018-11-29T18:34:49.900Z,9.87
2018-11-29T18:37:17.055Z,9.57
2018-11-29T18:39:44.402Z,9.60
2018-11-29T18:42:11.561Z,9.77
2018-11-29T18:44:38.736Z,9.77
2018-11-29T18:47:05.912Z,9.87
2018-11-29T18:49:33.096Z,10.30
2018-11-29T18:52:00.278Z,9.40
2018-11-29T18:54:27.453Z,9.60
2018-11-29T18:56:54.608Z,9.57
2018-11-29T18:59:21.805Z,9.67
2018-11-29T19:01:48.979Z,9.90
2018-11-29T19:04:16.149Z,10.80
2018-11-29T19:06:43.301Z,9.50
2018-11-29T19:09:10.498Z,8.33
2018-11-29T19:11:37.666Z,8.67
2018-11-29T19:14:04.849Z,9.27
2018-11-29T19:16:32.081Z,9.77
2018-11-29T19:18:59.260Z,9.30
2018-11-29T19:21:26.421Z,9.50
2018-11-29T19:23:53.595Z,9.57
2018-11-29T19:26:20.776Z,9.60
2018-11-29T19:28:47.928Z,9.70
2018-11-29T19:31:15.101Z,9.40
2018-11-29T19:33:42.281Z,8.83
2018-11-29T19:36:09.447Z,9.73
2018-11-29T19:38:36.600Z,9.40
2018-11-29T19:41:03.796Z,9.57
2018-11-29T19:43:30.968Z,8.83
2018-11-29T19:45:58.152Z,9.50
2018-11-29T19:48:25.323Z,9.63
2018-11-29T19:50:52.581Z,9.50
2018-11-29T19:53:21.388Z,9.00
2018-11-29T19:55:48.956Z,9.33
2018-11-29T19:58:16.120Z,9.10
2018-11-29T20:00:43.293Z,9.13
2018-11-29T20:03:10.448Z,9.10
2018-11-29T20:05:37.627Z,9.30
2018-11-29T20:08:05.817Z,9.00
2018-11-29T20:10:32.980Z,9.23
2018-11-29T20:13:05.009Z,9.00
2018-11-29T20:15:32.199Z,9.37
2018-11-29T20:17:59.368Z,8.43
2018-11-29T20:20:26.527Z,8.87
2018-11-29T20:22:53.720Z,8.50
2018-11-29T20:25:21.479Z,9.00
2018-11-29T20:27:48.730Z,9.03
2018-11-29T20:30:16.497Z,8.57
2018-11-29T20:32:43.849Z,8.63
2018-11-29T20:35:11.324Z,9.40
2018-11-29T20:37:38.594Z,9.17
2018-11-29T20:40:09.209Z,8.40
2018-11-29T20:42:36.472Z,8.63
2018-11-29T20:45:03.647Z,9.17
2018-11-29T20:47:30.816Z,8.37
2018-11-29T20:49:57.971Z,8.97
2018-11-29T20:52:25.246Z,8.70
2018-11-29T20:54:52.396Z,8.70
2018-11-29T20:57:19.569Z,8.10
2018-11-29T20:59:46.739Z,8.67
2018-11-29T21:02:13.953Z,8.90
2018-11-29T21:04:41.116Z,8.20
2018-11-29T21:07:08.297Z,8.83
2018-11-29T21:09:35.501Z,7.90
2018-11-29T21:12:02.676Z,8.63
2018-11-29T21:14:29.836Z,8.00
2018-11-29T21:16:57.000Z,8.10
2018-11-29T21:19:24.159Z,8.20
2018-11-29T21:21:51.321Z,8.30
2018-11-29T21:24:18.492Z,8.27
2018-11-29T21:26:45.669Z,8.30
2018-11-29T21:29:12.845Z,7.53
2018-11-29T21:31:40.018Z,7.20
2018-11-29T21:34:07.188Z,7.70
2018-11-29T21:36:34.375Z,7.80
2018-11-29T21:39:01.525Z,7.47
2018-11-29T21:41:28.691Z,8.33
2018-11-29T21:43:55.853Z,7.23
2018-11-29T21:46:23.020Z,7.60
2018-11-29T21:48:50.175Z,7.90
2018-11-29T21:51:17.343Z,7.70
2018-11-29T21:53:44.512Z,7.77
2018-11-29T21:56:11.695Z,7.67
2018-11-29T21:58:38.856Z,7.20
2018-11-29T22:01:06.038Z,7.13
2018-11-29T22:03:33.209Z,7.63
2018-11-29T22:06:00.377Z,7.60
2018-11-29T22:08:27.553Z,7.93
2018-11-29T22:10:54.748Z,6.87
2018-11-29T22:13:21.932Z,7.87
2018-11-29T22:15:49.084Z,7.80
2018-11-29T22:18:18.572Z,7.43
2018-11-29T22:20:45.924Z,7.53
2018-11-29T22:23:13.114Z,6.97
2018-11-29T22:25:40.543Z,7.30
2018-11-29T22:28:07.728Z,7.37
2018-11-29T22:30:34.895Z,7.30
2018-11-29T22:33:02.105Z,7.00
2018-11-29T22:35:29.369Z,7.17
2018-11-29T22:37:56.544Z,7.20
2018-11-29T22:40:23.697Z,6.93
2018-11-29T22:42:50.848Z,7.03
2018-11-29T22:45:18.027Z,7.17
2018-11-29T22:47:45.196Z,7.07
2018-11-29T22:50:12.373Z,7.17
2018-11-29T22:52:39.533Z,6.90
2018-11-29T22:55:06.748Z,7.47
2018-11-29T22:57:33.893Z,7.87
2018-11-29T23:00:01.066Z,6.70
2018-11-29T23:02:28.236Z,7.33
2018-11-29T23:04:55.415Z,7.50
2018-11-29T23:07:22.598Z,7.00
2018-11-29T23:09:49.764Z,7.23
2018-11-29T23:12:21.241Z,7.10
2018-11-29T23:14:48.408Z,7.17
2018-11-29T23:17:15.563Z,7.03
2018-11-29T23:19:42.751Z,6.83
2018-11-29T23:22:09.997Z,7.00
2018-11-29T23:24:37.139Z,7.00
2018-11-29T23:27:04.550Z,7.07
2018-11-29T23:29:31.719Z,6.80
2018-11-29T23:31:58.864Z,7.17
2018-11-29T23:34:26.036Z,7.10
2018-11-29T23:36:53.193Z,7.30
2018-11-29T23:39:20.356Z,7.40
2018-11-29T23:41:47.520Z,7.60
2018-11-29T23:44:14.678Z,7.67
2018-11-29T23:46:41.828Z,7.77
2018-11-29T23:49:09.056Z,7.17
2018-11-29T23:51:36.205Z,7.00
2018-11-29T23:54:03.380Z,7.47
2018-11-29T23:56:30.521Z,6.70
2018-11-29T23:58:57.675Z,7.10
